x

Destruction Island, Wa (desw1) Weather Station

6:00pm - Mon 20th Feb 2017 All times are PST. -8 hours from GMT.

  • Wind
  • 空気 Temp 44°f
  • Sea Pressure 1005.9mb
  • Destruction Island, Wa
  • Destruction Island, Wa

More Historic Weather Station data

Upgrade to MSW Pro to gain access to the past 30 days of data for over 8000 Wavebouys and Weather Stations around the globe.

Join Pro

Comparision Forecast

View Surf forecast
   
Mon 02/20 6:00pm  -  1 mph 1005.9mb 44f
5:00pm 2 3 mph 1005.6mb 45f
4:00pm 6
mph
1005mb 45f
3:00pm 8
mph
1004.3mb 45f
2:00pm 3 5 mph 1003.6mb 45f
1:00pm 3
mph
1002.8mb 44f
12:00pm  -  2 mph 1001.8mb 45f
11:00am 2 3 mph 1000.5mb 44f
10:00am 3 5 mph 999.7mb 43f
9:00am 5 6 mph 999.2mb 42f
8:00am 6 7 mph 998.8mb 42f
7:00am 10 11 mph 998.6mb 41f
6:00am 11
mph
998.9mb 41f
5:00am 10 11 mph 999.1mb 41f
4:00am 6 8 mph 999.7mb 42f
3:00am 10 11 mph 1000.4mb 44f
2:00am 10 13 mph 1001mb 44f
1:00am 11 14 mph 1001.4mb 43f
12:00am 16 17 mph 1001.5mb 44f
Sun 02/19 11:00pm 16 17 mph 1001.6mb 43f
10:00pm 15
mph
1001.3mb 43f
9:00pm 8 10 mph 1000.8mb 45f
8:00pm 11 14 mph 1000mb 46f
7:00pm 15 20 mph 999.2mb 44f
6:00pm 18 21 mph 998.3mb 43f
5:00pm 26 28 mph 997.1mb 43f
4:00pm 24 26 mph 996.2mb 42f
3:00pm 28 30 mph 995.3mb 43f
2:00pm 25 29 mph 994.8mb 44f
1:00pm 33 39 mph 994.1mb 44f
12:00pm 38 40 mph 993.9mb 44f
11:00am 39 41 mph 993.4mb 43f
10:00am 36 40 mph 993.1mb 43f
9:00am 36 40 mph 992.9mb 43f
8:00am 36 39 mph 992.5mb 42f
7:00am 31 36 mph 992.5mb 43f
6:00am 28 30 mph 992.7mb 43f
5:00am 16 18 mph 993.2mb 43f
4:00am 14 15 mph 993.2mb 42f
3:00am 20 21 mph 993.8mb 43f
2:00am 21 22 mph 994.4mb 43f
1:00am 22 24 mph 994.6mb 42f
12:00am 18 20 mph 995.1mb 42f
Sat 02/18 11:00pm 17 20 mph 995.7mb 42f
10:00pm 15 16 mph 995.7mb 43f
9:00pm 13
mph
995.8mb 44f
8:00pm 13 14 mph 995.7mb 44f
7:00pm 8 9 mph 995.7mb 45f
6:00pm 7 8 mph 995.6mb 45f
5:00pm 13 14 mph 995.7mb 46f
4:00pm 17 18 mph 995.7mb 46f
3:00pm 13 15 mph 995.6mb 46f
2:00pm 15 18 mph 995.5mb 46f
1:00pm 21 24 mph 995.9mb 45f
12:00pm 15 20 mph 996mb 46f
11:00am 17 18 mph 996.1mb 46f
10:00am 16 18 mph 996.4mb 45f
9:00am 14 16 mph 996.4mb 45f
8:00am 14 16 mph 996.5mb 44f
7:00am 10 11 mph 996.8mb 44f
6:00am 13 14 mph 997mb 44f
5:00am 9 11 mph 997.5mb 44f
4:00am 7 9 mph 997.3mb 44f
3:00am 6 8 mph 997.4mb 43f
2:00am 6
mph
997.5mb 42f
1:00am 6
mph
997.7mb 43f
12:00am 6
mph
998.1mb 43f
Fri 02/17 11:00pm 3 5 mph 998.7mb 44f
10:00pm 6 7 mph 998.9mb 45f
9:00pm 3 5 mph 999.3mb 46f
8:00pm 5 6 mph 999.4mb 46f
7:00pm 14
mph
1000mb 46f
6:00pm 13 14 mph 1000.4mb 48f
5:00pm 15 16 mph 1000.5mb 49f
4:00pm 17
mph
1001mb 49f
3:00pm 20 22 mph 1001.5mb 48f
2:00pm 21 23 mph 1002.3mb 47f
1:00pm 11 13 mph 1003.5mb 48f
12:00pm 5 6 mph 1004.9mb 47f
11:00am  -  1 mph 1005.5mb 47f
10:00am 2 3 mph 1006.2mb 46f
9:00am 5
mph
1006.5mb 46f
8:00am 6 7 mph 1006.7mb 45f
7:00am 10 11 mph 1006.6mb 45f
6:00am 11 13 mph 1006.5mb 45f
5:00am 11 13 mph 1006.5mb 45f
4:00am 14 15 mph 1006.6mb 45f